sensor_id;sensor_type;location;lat;lon;timestamp;P1;durP1;ratioP1;P2;durP2;ratioP2
52033;SDS011;38045;52.988;6.536;2024-03-02T00:02:01;3.35;;;2.47;;
52033;SDS011;38045;52.988;6.536;2024-03-02T00:04:27;3.30;;;2.15;;
52033;SDS011;38045;52.988;6.536;2024-03-02T00:06:52;4.28;;;2.78;;
52033;SDS011;38045;52.988;6.536;2024-03-02T00:09:21;4.90;;;2.80;;
52033;SDS011;38045;52.988;6.536;2024-03-02T00:11:47;3.92;;;2.78;;
52033;SDS011;38045;52.988;6.536;2024-03-02T00:14:13;3.47;;;2.88;;
52033;SDS011;38045;52.988;6.536;2024-03-02T00:16:38;2.45;;;2.25;;
52033;SDS011;38045;52.988;6.536;2024-03-02T00:19:07;3.25;;;2.65;;
52033;SDS011;38045;52.988;6.536;2024-03-02T00:21:34;12.48;;;3.13;;
52033;SDS011;38045;52.988;6.536;2024-03-02T00:24:01;5.55;;;2.85;;
52033;SDS011;38045;52.988;6.536;2024-03-02T00:26:46;3.33;;;2.35;;
52033;SDS011;38045;52.988;6.536;2024-03-02T00:29:14;3.42;;;3.05;;
52033;SDS011;38045;52.988;6.536;2024-03-02T00:31:43;4.80;;;3.90;;
52033;SDS011;38045;52.988;6.536;2024-03-02T00:34:09;4.25;;;3.03;;
52033;SDS011;38045;52.988;6.536;2024-03-02T00:36:38;2.45;;;2.22;;
52033;SDS011;38045;52.988;6.536;2024-03-02T00:39:04;1.85;;;1.75;;
52033;SDS011;38045;52.988;6.536;2024-03-02T00:41:33;3.57;;;2.73;;
52033;SDS011;38045;52.988;6.536;2024-03-02T00:46:59;5.53;;;3.67;;
52033;SDS011;38045;52.988;6.536;2024-03-02T00:49:25;2.95;;;2.75;;
52033;SDS011;38045;52.988;6.536;2024-03-02T00:51:53;3.28;;;3.00;;
52033;SDS011;38045;52.988;6.536;2024-03-02T00:54:20;4.30;;;3.65;;
52033;SDS011;38045;52.988;6.536;2024-03-02T00:56:47;3.50;;;2.08;;
52033;SDS011;38045;52.988;6.536;2024-03-02T00:59:13;4.00;;;2.22;;
52033;SDS011;38045;52.988;6.536;2024-03-02T01:01:38;3.65;;;3.30;;
52033;SDS011;38045;52.988;6.536;2024-03-02T01:04:04;5.18;;;3.10;;
52033;SDS011;38045;52.988;6.536;2024-03-02T01:06:30;3.25;;;2.17;;
52033;SDS011;38045;52.988;6.536;2024-03-02T01:08:56;3.42;;;2.50;;
52033;SDS011;38045;52.988;6.536;2024-03-02T01:11:21;5.03;;;2.78;;
52033;SDS011;38045;52.988;6.536;2024-03-02T01:13:47;3.75;;;3.05;;
52033;SDS011;38045;52.988;6.536;2024-03-02T01:16:13;3.40;;;2.90;;
52033;SDS011;38045;52.988;6.536;2024-03-02T01:18:40;3.13;;;2.88;;
52033;SDS011;38045;52.988;6.536;2024-03-02T01:21:06;4.07;;;3.75;;
52033;SDS011;38045;52.988;6.536;2024-03-02T01:23:32;3.45;;;2.55;;
52033;SDS011;38045;52.988;6.536;2024-03-02T01:25:58;6.60;;;2.65;;
52033;SDS011;38045;52.988;6.536;2024-03-02T01:28:23;2.85;;;2.20;;
52033;SDS011;38045;52.988;6.536;2024-03-02T01:30:49;3.13;;;2.88;;
52033;SDS011;38045;52.988;6.536;2024-03-02T01:33:15;2.58;;;2.38;;
52033;SDS011;38045;52.988;6.536;2024-03-02T01:35:41;3.30;;;3.00;;
52033;SDS011;38045;52.988;6.536;2024-03-02T01:38:07;4.30;;;2.50;;
52033;SDS011;38045;52.988;6.536;2024-03-02T01:40:36;2.72;;;2.53;;
52033;SDS011;38045;52.988;6.536;2024-03-02T01:43:03;3.17;;;2.63;;
52033;SDS011;38045;52.988;6.536;2024-03-02T01:45:29;3.30;;;2.90;;
52033;SDS011;38045;52.988;6.536;2024-03-02T01:47:55;5.50;;;3.97;;
52033;SDS011;38045;52.988;6.536;2024-03-02T01:50:28;4.13;;;3.50;;
52033;SDS011;38045;52.988;6.536;2024-03-02T01:52:55;3.28;;;2.92;;
52033;SDS011;38045;52.988;6.536;2024-03-02T01:55:21;4.53;;;2.92;;
52033;SDS011;38045;52.988;6.536;2024-03-02T01:57:48;4.38;;;2.95;;
52033;SDS011;38045;52.988;6.536;2024-03-02T02:00:15;3.45;;;3.15;;
52033;SDS011;38045;52.988;6.536;2024-03-02T02:02:41;3.63;;;3.33;;
52033;SDS011;38045;52.988;6.536;2024-03-02T02:05:08;4.57;;;3.88;;
52033;SDS011;38045;52.988;6.536;2024-03-02T02:07:34;3.47;;;3.00;;
52033;SDS011;38045;52.988;6.536;2024-03-02T02:10:00;3.60;;;3.30;;
52033;SDS011;38045;52.988;6.536;2024-03-02T02:12:26;3.03;;;2.75;;
52033;SDS011;38045;52.988;6.536;2024-03-02T02:14:52;4.20;;;2.58;;
52033;SDS011;38045;52.988;6.536;2024-03-02T02:17:17;5.68;;;3.17;;
52033;SDS011;38045;52.988;6.536;2024-03-02T02:19:43;3.10;;;2.75;;
52033;SDS011;38045;52.988;6.536;2024-03-02T02:22:12;3.47;;;3.17;;
52033;SDS011;38045;52.988;6.536;2024-03-02T02:24:40;6.13;;;2.97;;
52033;SDS011;38045;52.988;6.536;2024-03-02T02:29:32;4.30;;;3.90;;
52033;SDS011;38045;52.988;6.536;2024-03-02T02:31:58;3.85;;;3.30;;
52033;SDS011;38045;52.988;6.536;2024-03-02T02:34:24;4.28;;;3.28;;
52033;SDS011;38045;52.988;6.536;2024-03-02T02:36:49;3.28;;;2.97;;
52033;SDS011;38045;52.988;6.536;2024-03-02T02:39:15;6.07;;;3.75;;
52033;SDS011;38045;52.988;6.536;2024-03-02T02:41:43;3.50;;;3.20;;
52033;SDS011;38045;52.988;6.536;2024-03-02T02:44:09;4.18;;;3.03;;
52033;SDS011;38045;52.988;6.536;2024-03-02T02:46:37;4.35;;;3.95;;
52033;SDS011;38045;52.988;6.536;2024-03-02T02:49:04;3.42;;;2.85;;
52033;SDS011;38045;52.988;6.536;2024-03-02T02:51:29;2.22;;;1.77;;
52033;SDS011;38045;52.988;6.536;2024-03-02T02:53:55;3.42;;;2.97;;
52033;SDS011;38045;52.988;6.536;2024-03-02T02:56:22;2.95;;;2.33;;
52033;SDS011;38045;52.988;6.536;2024-03-02T02:58:47;3.80;;;2.80;;
52033;SDS011;38045;52.988;6.536;2024-03-02T03:01:13;5.40;;;3.35;;
52033;SDS011;38045;52.988;6.536;2024-03-02T03:03:40;3.70;;;3.40;;
52033;SDS011;38045;52.988;6.536;2024-03-02T03:06:05;3.58;;;2.95;;
52033;SDS011;38045;52.988;6.536;2024-03-02T03:08:31;4.22;;;2.85;;
52033;SDS011;38045;52.988;6.536;2024-03-02T03:10:57;3.28;;;2.85;;
52033;SDS011;38045;52.988;6.536;2024-03-02T03:13:22;4.80;;;3.63;;
52033;SDS011;38045;52.988;6.536;2024-03-02T03:15:48;3.05;;;2.85;;
52033;SDS011;38045;52.988;6.536;2024-03-02T03:18:14;3.95;;;2.45;;
52033;SDS011;38045;52.988;6.536;2024-03-02T03:20:39;4.18;;;2.55;;
52033;SDS011;38045;52.988;6.536;2024-03-02T03:23:05;3.03;;;2.22;;
52033;SDS011;38045;52.988;6.536;2024-03-02T03:25:30;2.42;;;2.22;;
52033;SDS011;38045;52.988;6.536;2024-03-02T03:27:56;2.42;;;2.22;;
52033;SDS011;38045;52.988;6.536;2024-03-02T03:30:22;3.05;;;2.63;;
52033;SDS011;38045;52.988;6.536;2024-03-02T03:32:47;3.10;;;2.90;;
52033;SDS011;38045;52.988;6.536;2024-03-02T03:35:13;2.97;;;2.33;;
52033;SDS011;38045;52.988;6.536;2024-03-02T03:37:40;3.90;;;3.17;;
52033;SDS011;38045;52.988;6.536;2024-03-02T03:40:06;6.95;;;3.25;;
52033;SDS011;38045;52.988;6.536;2024-03-02T03:42:35;3.30;;;2.20;;
52033;SDS011;38045;52.988;6.536;2024-03-02T03:45:04;3.85;;;2.35;;
52033;SDS011;38045;52.988;6.536;2024-03-02T03:47:33;6.72;;;3.75;;
52033;SDS011;38045;52.988;6.536;2024-03-02T03:49:59;2.95;;;2.22;;
52033;SDS011;38045;52.988;6.536;2024-03-02T03:52:24;2.67;;;1.80;;
52033;SDS011;38045;52.988;6.536;2024-03-02T03:54:50;2.55;;;2.10;;
52033;SDS011;38045;52.988;6.536;2024-03-02T03:57:16;7.18;;;2.28;;
52033;SDS011;38045;52.988;6.536;2024-03-02T03:59:42;2.45;;;2.08;;
52033;SDS011;38045;52.988;6.536;2024-03-02T04:02:08;3.58;;;3.20;;
52033;SDS011;38045;52.988;6.536;2024-03-02T04:04:34;2.83;;;2.63;;
52033;SDS011;38045;52.988;6.536;2024-03-02T04:07:00;4.57;;;2.78;;
52033;SDS011;38045;52.988;6.536;2024-03-02T04:09:26;2.22;;;2.05;;
52033;SDS011;38045;52.988;6.536;2024-03-02T04:11:52;3.17;;;2.22;;
52033;SDS011;38045;52.988;6.536;2024-03-02T04:14:18;4.97;;;2.92;;
52033;SDS011;38045;52.988;6.536;2024-03-02T04:16:43;2.67;;;2.47;;
52033;SDS011;38045;52.988;6.536;2024-03-02T04:19:09;4.30;;;2.92;;
52033;SDS011;38045;52.988;6.536;2024-03-02T04:21:35;4.50;;;2.70;;
52033;SDS011;38045;52.988;6.536;2024-03-02T04:24:00;3.30;;;3.03;;
52033;SDS011;38045;52.988;6.536;2024-03-02T04:26:26;3.05;;;2.55;;
52033;SDS011;38045;52.988;6.536;2024-03-02T04:28:52;6.93;;;3.42;;
52033;SDS011;38045;52.988;6.536;2024-03-02T04:31:18;3.42;;;2.80;;
52033;SDS011;38045;52.988;6.536;2024-03-02T04:33:45;2.72;;;2.47;;
52033;SDS011;38045;52.988;6.536;2024-03-02T04:36:10;3.78;;;2.38;;
52033;SDS011;38045;52.988;6.536;2024-03-02T04:38:36;4.75;;;2.58;;
52033;SDS011;38045;52.988;6.536;2024-03-02T04:41:03;5.82;;;3.97;;
52033;SDS011;38045;52.988;6.536;2024-03-02T04:43:31;4.13;;;2.10;;
52033;SDS011;38045;52.988;6.536;2024-03-02T04:45:57;6.10;;;3.15;;
52033;SDS011;38045;52.988;6.536;2024-03-02T04:48:23;3.08;;;2.30;;
52033;SDS011;38045;52.988;6.536;2024-03-02T04:50:49;3.67;;;2.10;;
52033;SDS011;38045;52.988;6.536;2024-03-02T04:53:15;3.15;;;2.35;;
52033;SDS011;38045;52.988;6.536;2024-03-02T04:55:40;3.55;;;2.22;;
52033;SDS011;38045;52.988;6.536;2024-03-02T04:58:06;2.83;;;2.25;;
52033;SDS011;38045;52.988;6.536;2024-03-02T05:00:32;3.80;;;3.20;;
52033;SDS011;38045;52.988;6.536;2024-03-02T05:02:58;2.30;;;2.05;;
52033;SDS011;38045;52.988;6.536;2024-03-02T05:05:23;5.05;;;2.75;;
52033;SDS011;38045;52.988;6.536;2024-03-02T05:07:49;3.25;;;2.95;;
52033;SDS011;38045;52.988;6.536;2024-03-02T05:10:15;3.15;;;2.60;;
52033;SDS011;38045;52.988;6.536;2024-03-02T05:12:40;3.30;;;2.72;;
52033;SDS011;38045;52.988;6.536;2024-03-02T05:15:10;3.20;;;2.42;;
52033;SDS011;38045;52.988;6.536;2024-03-02T05:17:37;3.58;;;2.78;;
52033;SDS011;38045;52.988;6.536;2024-03-02T05:20:04;3.22;;;2.60;;
52033;SDS011;38045;52.988;6.536;2024-03-02T05:22:33;5.38;;;3.38;;
52033;SDS011;38045;52.988;6.536;2024-03-02T05:24:59;3.42;;;3.13;;
52033;SDS011;38045;52.988;6.536;2024-03-02T05:27:26;5.75;;;2.92;;
52033;SDS011;38045;52.988;6.536;2024-03-02T05:29:52;3.90;;;2.85;;
52033;SDS011;38045;52.988;6.536;2024-03-02T05:32:17;2.45;;;2.25;;
52033;SDS011;38045;52.988;6.536;2024-03-02T05:34:43;4.05;;;2.65;;
52033;SDS011;38045;52.988;6.536;2024-03-02T05:37:09;3.95;;;2.63;;
52033;SDS011;38045;52.988;6.536;2024-03-02T05:39:34;5.43;;;3.00;;
52033;SDS011;38045;52.988;6.536;2024-03-02T05:42:00;4.50;;;2.90;;
52033;SDS011;38045;52.988;6.536;2024-03-02T05:44:25;3.47;;;3.17;;
52033;SDS011;38045;52.988;6.536;2024-03-02T05:46:51;4.18;;;3.80;;
52033;SDS011;38045;52.988;6.536;2024-03-02T05:49:17;3.55;;;2.42;;
52033;SDS011;38045;52.988;6.536;2024-03-02T05:51:43;4.55;;;2.70;;
52033;SDS011;38045;52.988;6.536;2024-03-02T05:54:08;5.28;;;2.95;;
52033;SDS011;38045;52.988;6.536;2024-03-02T05:56:34;3.22;;;3.00;;
52033;SDS011;38045;52.988;6.536;2024-03-02T05:59:00;2.35;;;2.15;;
52033;SDS011;38045;52.988;6.536;2024-03-02T06:01:33;2.55;;;2.00;;
52033;SDS011;38045;52.988;6.536;2024-03-02T06:03:59;2.25;;;1.88;;
52033;SDS011;38045;52.988;6.536;2024-03-02T06:06:25;3.13;;;2.78;;
52033;SDS011;38045;52.988;6.536;2024-03-02T06:08:50;5.43;;;3.28;;
52033;SDS011;38045;52.988;6.536;2024-03-02T06:11:17;2.95;;;2.10;;
52033;SDS011;38045;52.988;6.536;2024-03-02T06:13:44;4.25;;;3.08;;
52033;SDS011;38045;52.988;6.536;2024-03-02T06:16:09;4.45;;;2.70;;
52033;SDS011;38045;52.988;6.536;2024-03-02T06:18:35;3.33;;;2.33;;
52033;SDS011;38045;52.988;6.536;2024-03-02T06:21:01;2.78;;;2.50;;
52033;SDS011;38045;52.988;6.536;2024-03-02T06:23:26;3.88;;;3.45;;
52033;SDS011;38045;52.988;6.536;2024-03-02T06:25:52;5.05;;;2.55;;
52033;SDS011;38045;52.988;6.536;2024-03-02T06:28:18;2.38;;;2.08;;
52033;SDS011;38045;52.988;6.536;2024-03-02T06:30:43;3.60;;;3.30;;
52033;SDS011;38045;52.988;6.536;2024-03-02T06:33:10;6.35;;;2.53;;
52033;SDS011;38045;52.988;6.536;2024-03-02T06:35:36;4.88;;;2.72;;
52033;SDS011;38045;52.988;6.536;2024-03-02T06:38:02;3.95;;;2.05;;
52033;SDS011;38045;52.988;6.536;2024-03-02T06:40:27;3.30;;;3.00;;
52033;SDS011;38045;52.988;6.536;2024-03-02T06:42:53;2.65;;;2.47;;
52033;SDS011;38045;52.988;6.536;2024-03-02T06:45:18;3.05;;;1.80;;
52033;SDS011;38045;52.988;6.536;2024-03-02T06:47:44;2.55;;;2.33;;
52033;SDS011;38045;52.988;6.536;2024-03-02T06:50:10;4.20;;;2.20;;
52033;SDS011;38045;52.988;6.536;2024-03-02T06:52:35;3.42;;;2.25;;
52033;SDS011;38045;52.988;6.536;2024-03-02T06:55:01;2.08;;;1.83;;
52033;SDS011;38045;52.988;6.536;2024-03-02T06:57:27;5.47;;;2.47;;
52033;SDS011;38045;52.988;6.536;2024-03-02T06:59:53;2.80;;;2.60;;
52033;SDS011;38045;52.988;6.536;2024-03-02T07:02:22;4.60;;;2.10;;
52033;SDS011;38045;52.988;6.536;2024-03-02T07:04:48;2.42;;;2.22;;
52033;SDS011;38045;52.988;6.536;2024-03-02T07:07:13;3.10;;;2.40;;
52033;SDS011;38045;52.988;6.536;2024-03-02T07:09:39;3.85;;;2.38;;
52033;SDS011;38045;52.988;6.536;2024-03-02T07:12:04;3.50;;;2.45;;
52033;SDS011;38045;52.988;6.536;2024-03-02T07:14:30;1.95;;;1.20;;
52033;SDS011;38045;52.988;6.536;2024-03-02T07:17:31;3.22;;;1.63;;
52033;SDS011;38045;52.988;6.536;2024-03-02T07:19:57;2.67;;;1.98;;
52033;SDS011;38045;52.988;6.536;2024-03-02T07:22:23;2.10;;;1.85;;
52033;SDS011;38045;52.988;6.536;2024-03-02T07:24:49;3.00;;;1.98;;
52033;SDS011;38045;52.988;6.536;2024-03-02T07:27:16;3.97;;;2.97;;
52033;SDS011;38045;52.988;6.536;2024-03-02T07:29:42;5.82;;;3.17;;
52033;SDS011;38045;52.988;6.536;2024-03-02T07:32:09;2.80;;;2.60;;
52033;SDS011;38045;52.988;6.536;2024-03-02T07:34:35;3.35;;;2.55;;
52033;SDS011;38045;52.988;6.536;2024-03-02T07:37:02;5.55;;;1.90;;
52033;SDS011;38045;52.988;6.536;2024-03-02T07:39:28;3.08;;;2.15;;
52033;SDS011;38045;52.988;6.536;2024-03-02T07:41:54;2.05;;;1.85;;
52033;SDS011;38045;52.988;6.536;2024-03-02T07:44:20;2.67;;;1.35;;
52033;SDS011;38045;52.988;6.536;2024-03-02T07:46:46;1.23;;;1.13;;
52033;SDS011;38045;52.988;6.536;2024-03-02T07:49:14;2.38;;;1.40;;
52033;SDS011;38045;52.988;6.536;2024-03-02T07:51:40;2.03;;;1.20;;
52033;SDS011;38045;52.988;6.536;2024-03-02T07:54:06;3.90;;;1.38;;
52033;SDS011;38045;52.988;6.536;2024-03-02T07:56:32;3.83;;;2.90;;
52033;SDS011;38045;52.988;6.536;2024-03-02T07:58:57;2.55;;;1.52;;
52033;SDS011;38045;52.988;6.536;2024-03-02T08:01:27;3.00;;;2.55;;
52033;SDS011;38045;52.988;6.536;2024-03-02T08:06:23;6.55;;;2.50;;
52033;SDS011;38045;52.988;6.536;2024-03-02T08:11:24;3.38;;;2.10;;
52033;SDS011;38045;52.988;6.536;2024-03-02T08:13:50;2.47;;;2.05;;
52033;SDS011;38045;52.988;6.536;2024-03-02T08:16:17;7.78;;;2.92;;
52033;SDS011;38045;52.988;6.536;2024-03-02T08:18:47;6.72;;;1.25;;
52033;SDS011;38045;52.988;6.536;2024-03-02T08:21:13;2.65;;;1.63;;
52033;SDS011;38045;52.988;6.536;2024-03-02T08:23:38;3.75;;;1.55;;
52033;SDS011;38045;52.988;6.536;2024-03-02T08:26:06;4.05;;;0.95;;
52033;SDS011;38045;52.988;6.536;2024-03-02T08:28:31;0.80;;;0.80;;
52033;SDS011;38045;52.988;6.536;2024-03-02T08:30:58;1.25;;;0.85;;
52033;SDS011;38045;52.988;6.536;2024-03-02T08:33:23;1.88;;;0.85;;
52033;SDS011;38045;52.988;6.536;2024-03-02T08:35:49;3.15;;;0.95;;
52033;SDS011;38045;52.988;6.536;2024-03-02T08:38:15;0.20;;;0.20;;
52033;SDS011;38045;52.988;6.536;2024-03-02T08:40:40;0.73;;;0.20;;
52033;SDS011;38045;52.988;6.536;2024-03-02T08:43:06;6.32;;;0.68;;
52033;SDS011;38045;52.988;6.536;2024-03-02T08:45:32;4.65;;;1.40;;
52033;SDS011;38045;52.988;6.536;2024-03-02T08:47:59;1.50;;;0.90;;
52033;SDS011;38045;52.988;6.536;2024-03-02T08:50:25;1.63;;;0.85;;
52033;SDS011;38045;52.988;6.536;2024-03-02T08:52:51;1.83;;;1.17;;
52033;SDS011;38045;52.988;6.536;2024-03-02T08:55:16;1.15;;;0.90;;
52033;SDS011;38045;52.988;6.536;2024-03-02T08:57:42;2.20;;;1.20;;
52033;SDS011;38045;52.988;6.536;2024-03-02T09:00:08;2.05;;;1.02;;
52033;SDS011;38045;52.988;6.536;2024-03-02T09:02:34;1.48;;;1.20;;
52033;SDS011;38045;52.988;6.536;2024-03-02T09:05:00;1.67;;;1.58;;
52033;SDS011;38045;52.988;6.536;2024-03-02T09:07:26;3.42;;;1.63;;
52033;SDS011;38045;52.988;6.536;2024-03-02T09:09:52;2.95;;;2.22;;
52033;SDS011;38045;52.988;6.536;2024-03-02T09:12:17;3.20;;;2.15;;
52033;SDS011;38045;52.988;6.536;2024-03-02T09:14:44;1.83;;;1.67;;
52033;SDS011;38045;52.988;6.536;2024-03-02T09:17:10;2.45;;;1.23;;
52033;SDS011;38045;52.988;6.536;2024-03-02T09:19:37;1.52;;;1.42;;
52033;SDS011;38045;52.988;6.536;2024-03-02T09:22:03;1.73;;;1.02;;
52033;SDS011;38045;52.988;6.536;2024-03-02T09:24:30;1.38;;;1.27;;
52033;SDS011;38045;52.988;6.536;2024-03-02T09:26:58;1.38;;;1.30;;
52033;SDS011;38045;52.988;6.536;2024-03-02T09:29:23;2.13;;;1.40;;
52033;SDS011;38045;52.988;6.536;2024-03-02T09:31:49;1.08;;;0.73;;
52033;SDS011;38045;52.988;6.536;2024-03-02T09:34:15;4.60;;;1.20;;
52033;SDS011;38045;52.988;6.536;2024-03-02T09:36:42;3.30;;;1.02;;
52033;SDS011;38045;52.988;6.536;2024-03-02T09:39:08;4.40;;;1.50;;
52033;SDS011;38045;52.988;6.536;2024-03-02T09:41:36;4.60;;;1.17;;
52033;SDS011;38045;52.988;6.536;2024-03-02T09:44:03;5.57;;;1.35;;
52033;SDS011;38045;52.988;6.536;2024-03-02T09:46:29;1.15;;;0.88;;
52033;SDS011;38045;52.988;6.536;2024-03-02T09:48:55;0.63;;;0.60;;
52033;SDS011;38045;52.988;6.536;2024-03-02T09:51:21;1.02;;;0.82;;
52033;SDS011;38045;52.988;6.536;2024-03-02T09:53:47;2.58;;;0.82;;
52033;SDS011;38045;52.988;6.536;2024-03-02T09:56:13;0.80;;;0.70;;
52033;SDS011;38045;52.988;6.536;2024-03-02T09:58:40;2.45;;;0.57;;
52033;SDS011;38045;52.988;6.536;2024-03-02T10:01:06;1.67;;;0.75;;
52033;SDS011;38045;52.988;6.536;2024-03-02T10:03:33;0.68;;;0.50;;
52033;SDS011;38045;52.988;6.536;2024-03-02T10:08:50;0.52;;;0.52;;
52033;SDS011;38045;52.988;6.536;2024-03-02T10:11:26;2.58;;;1.30;;
52033;SDS011;38045;52.988;6.536;2024-03-02T10:14:06;2.67;;;1.85;;
52033;SDS011;38045;52.988;6.536;2024-03-02T10:16:41;1.45;;;1.10;;
52033;SDS011;38045;52.988;6.536;2024-03-02T10:19:15;5.20;;;1.58;;
52033;SDS011;38045;52.988;6.536;2024-03-02T10:24:20;2.70;;;1.10;;
52033;SDS011;38045;52.988;6.536;2024-03-02T10:26:47;1.70;;;1.60;;
52033;SDS011;38045;52.988;6.536;2024-03-02T10:29:13;1.67;;;1.42;;
52033;SDS011;38045;52.988;6.536;2024-03-02T10:31:43;1.70;;;1.20;;
52033;SDS011;38045;52.988;6.536;2024-03-02T10:34:10;1.33;;;1.23;;
52033;SDS011;38045;52.988;6.536;2024-03-02T10:36:37;1.52;;;1.42;;
52033;SDS011;38045;52.988;6.536;2024-03-02T10:39:06;1.73;;;1.48;;
52033;SDS011;38045;52.988;6.536;2024-03-02T10:41:33;2.10;;;1.63;;
52033;SDS011;38045;52.988;6.536;2024-03-02T10:44:06;4.20;;;1.23;;
52033;SDS011;38045;52.988;6.536;2024-03-02T10:46:34;1.77;;;1.23;;
52033;SDS011;38045;52.988;6.536;2024-03-02T10:49:01;2.72;;;1.40;;
52033;SDS011;38045;52.988;6.536;2024-03-02T10:51:29;0.80;;;0.80;;
52033;SDS011;38045;52.988;6.536;2024-03-02T10:54:00;3.00;;;1.33;;
52033;SDS011;38045;52.988;6.536;2024-03-02T10:56:31;5.72;;;1.73;;
52033;SDS011;38045;52.988;6.536;2024-03-02T11:01:38;2.67;;;1.10;;
52033;SDS011;38045;52.988;6.536;2024-03-02T11:04:04;1.60;;;1.00;;
52033;SDS011;38045;52.988;6.536;2024-03-02T11:06:34;1.50;;;1.10;;
52033;SDS011;38045;52.988;6.536;2024-03-02T11:09:07;2.42;;;1.83;;
52033;SDS011;38045;52.988;6.536;2024-03-02T11:11:35;2.03;;;1.25;;
52033;SDS011;38045;52.988;6.536;2024-03-02T11:14:02;1.13;;;1.02;;
52033;SDS011;38045;52.988;6.536;2024-03-02T11:16:34;2.65;;;0.68;;
52033;SDS011;38045;52.988;6.536;2024-03-02T11:19:04;1.52;;;0.68;;
52033;SDS011;38045;52.988;6.536;2024-03-02T11:21:32;2.00;;;0.80;;
52033;SDS011;38045;52.988;6.536;2024-03-02T11:26:49;3.78;;;1.00;;
52033;SDS011;38045;52.988;6.536;2024-03-02T11:32:05;0.93;;;0.55;;
52033;SDS011;38045;52.988;6.536;2024-03-02T11:34:38;1.65;;;0.38;;
52033;SDS011;38045;52.988;6.536;2024-03-02T11:37:10;0.95;;;0.40;;
52033;SDS011;38045;52.988;6.536;2024-03-02T11:39:36;2.10;;;1.23;;
52033;SDS011;38045;52.988;6.536;2024-03-02T11:42:05;2.55;;;1.15;;
52033;SDS011;38045;52.988;6.536;2024-03-02T11:44:35;1.38;;;0.77;;
52033;SDS011;38045;52.988;6.536;2024-03-02T11:47:03;3.38;;;0.47;;
52033;SDS011;38045;52.988;6.536;2024-03-02T11:49:38;0.43;;;0.40;;
52033;SDS011;38045;52.988;6.536;2024-03-02T11:52:05;2.28;;;0.50;;
52033;SDS011;38045;52.988;6.536;2024-03-02T11:54:32;3.70;;;0.85;;
52033;SDS011;38045;52.988;6.536;2024-03-02T11:57:04;1.25;;;0.73;;
52033;SDS011;38045;52.988;6.536;2024-03-02T11:59:30;1.65;;;0.85;;
52033;SDS011;38045;52.988;6.536;2024-03-02T12:01:59;0.98;;;0.75;;
52033;SDS011;38045;52.988;6.536;2024-03-02T12:04:25;1.23;;;0.73;;
52033;SDS011;38045;52.988;6.536;2024-03-02T12:06:55;1.17;;;0.50;;
52033;SDS011;38045;52.988;6.536;2024-03-02T12:09:22;0.68;;;0.50;;
52033;SDS011;38045;52.988;6.536;2024-03-02T12:11:47;4.10;;;0.50;;
52033;SDS011;38045;52.988;6.536;2024-03-02T12:14:13;1.08;;;0.65;;
52033;SDS011;38045;52.988;6.536;2024-03-02T12:16:38;2.40;;;0.43;;
52033;SDS011;38045;52.988;6.536;2024-03-02T12:19:08;6.78;;;1.52;;
52033;SDS011;38045;52.988;6.536;2024-03-02T12:21:33;1.30;;;1.00;;
52033;SDS011;38045;52.988;6.536;2024-03-02T12:24:00;1.00;;;0.77;;
52033;SDS011;38045;52.988;6.536;2024-03-02T12:26:27;2.42;;;0.50;;
52033;SDS011;38045;52.988;6.536;2024-03-02T12:28:53;1.52;;;0.75;;
52033;SDS011;38045;52.988;6.536;2024-03-02T12:31:19;1.60;;;0.93;;
52033;SDS011;38045;52.988;6.536;2024-03-02T12:33:45;3.13;;;1.10;;
52033;SDS011;38045;52.988;6.536;2024-03-02T12:36:12;3.45;;;1.02;;
52033;SDS011;38045;52.988;6.536;2024-03-02T12:38:42;0.77;;;0.77;;
52033;SDS011;38045;52.988;6.536;2024-03-02T12:41:09;0.98;;;0.70;;
52033;SDS011;38045;52.988;6.536;2024-03-02T12:43:34;2.97;;;1.35;;
52033;SDS011;38045;52.988;6.536;2024-03-02T12:46:00;1.27;;;1.10;;
52033;SDS011;38045;52.988;6.536;2024-03-02T12:48:26;1.42;;;1.02;;
52033;SDS011;38045;52.988;6.536;2024-03-02T12:50:52;1.45;;;1.10;;
52033;SDS011;38045;52.988;6.536;2024-03-02T12:53:17;1.52;;;1.25;;
52033;SDS011;38045;52.988;6.536;2024-03-02T12:55:43;4.57;;;1.15;;
52033;SDS011;38045;52.988;6.536;2024-03-02T12:58:19;2.38;;;1.67;;
52033;SDS011;38045;52.988;6.536;2024-03-02T13:00:46;4.03;;;1.83;;
52033;SDS011;38045;52.988;6.536;2024-03-02T13:03:12;1.95;;;1.77;;
52033;SDS011;38045;52.988;6.536;2024-03-02T13:05:39;2.78;;;2.63;;
52033;SDS011;38045;52.988;6.536;2024-03-02T13:08:05;2.47;;;2.17;;
52033;SDS011;38045;52.988;6.536;2024-03-02T13:10:32;4.20;;;2.97;;
52033;SDS011;38045;52.988;6.536;2024-03-02T13:12:58;3.00;;;2.47;;
52033;SDS011;38045;52.988;6.536;2024-03-02T13:15:25;2.72;;;2.55;;
52033;SDS011;38045;52.988;6.536;2024-03-02T13:17:52;3.08;;;2.78;;
52033;SDS011;38045;52.988;6.536;2024-03-02T13:20:17;8.18;;;2.28;;
52033;SDS011;38045;52.988;6.536;2024-03-02T13:22:44;2.50;;;2.28;;
52033;SDS011;38045;52.988;6.536;2024-03-02T13:25:09;2.22;;;2.03;;
52033;SDS011;38045;52.988;6.536;2024-03-02T13:27:36;2.45;;;2.17;;
52033;SDS011;38045;52.988;6.536;2024-03-02T13:30:02;2.50;;;1.90;;
52033;SDS011;38045;52.988;6.536;2024-03-02T13:32:28;2.58;;;2.35;;
52033;SDS011;38045;52.988;6.536;2024-03-02T13:34:54;2.08;;;1.85;;
52033;SDS011;38045;52.988;6.536;2024-03-02T13:37:20;3.50;;;1.65;;
52033;SDS011;38045;52.988;6.536;2024-03-02T13:39:46;2.38;;;1.58;;
52033;SDS011;38045;52.988;6.536;2024-03-02T13:42:12;2.88;;;2.10;;
52033;SDS011;38045;52.988;6.536;2024-03-02T13:44:40;6.68;;;3.10;;
52033;SDS011;38045;52.988;6.536;2024-03-02T13:47:05;1.92;;;1.83;;
52033;SDS011;38045;52.988;6.536;2024-03-02T13:49:31;3.22;;;2.92;;
52033;SDS011;38045;52.988;6.536;2024-03-02T13:52:04;4.93;;;4.53;;
52033;SDS011;38045;52.988;6.536;2024-03-02T13:54:38;5.03;;;4.07;;
52033;SDS011;38045;52.988;6.536;2024-03-02T13:57:04;3.55;;;3.30;;
52033;SDS011;38045;52.988;6.536;2024-03-02T13:59:31;3.97;;;3.58;;
52033;SDS011;38045;52.988;6.536;2024-03-02T14:01:57;3.85;;;3.65;;
52033;SDS011;38045;52.988;6.536;2024-03-02T14:04:23;3.58;;;3.38;;
52033;SDS011;38045;52.988;6.536;2024-03-02T14:06:48;5.38;;;4.93;;
52033;SDS011;38045;52.988;6.536;2024-03-02T14:09:14;3.45;;;3.25;;
52033;SDS011;38045;52.988;6.536;2024-03-02T14:11:40;3.65;;;3.30;;
52033;SDS011;38045;52.988;6.536;2024-03-02T14:14:05;5.03;;;3.75;;
52033;SDS011;38045;52.988;6.536;2024-03-02T14:16:31;5.50;;;4.88;;
52033;SDS011;38045;52.988;6.536;2024-03-02T14:18:56;6.78;;;4.63;;
52033;SDS011;38045;52.988;6.536;2024-03-02T14:21:24;3.30;;;2.95;;
52033;SDS011;38045;52.988;6.536;2024-03-02T14:23:50;2.10;;;1.90;;
52033;SDS011;38045;52.988;6.536;2024-03-02T14:26:15;1.67;;;1.38;;
52033;SDS011;38045;52.988;6.536;2024-03-02T14:28:41;2.85;;;1.88;;
52033;SDS011;38045;52.988;6.536;2024-03-02T14:31:07;2.20;;;2.00;;
52033;SDS011;38045;52.988;6.536;2024-03-02T14:33:32;4.70;;;1.70;;
52033;SDS011;38045;52.988;6.536;2024-03-02T14:35:58;4.78;;;1.98;;
52033;SDS011;38045;52.988;6.536;2024-03-02T14:38:23;1.50;;;1.40;;
52033;SDS011;38045;52.988;6.536;2024-03-02T14:40:49;2.88;;;1.55;;
52033;SDS011;38045;52.988;6.536;2024-03-02T14:43:15;2.15;;;1.67;;
52033;SDS011;38045;52.988;6.536;2024-03-02T14:45:40;1.63;;;1.40;;
52033;SDS011;38045;52.988;6.536;2024-03-02T14:48:06;2.72;;;1.75;;
52033;SDS011;38045;52.988;6.536;2024-03-02T14:50:32;6.75;;;2.70;;
52033;SDS011;38045;52.988;6.536;2024-03-02T14:52:58;2.63;;;1.90;;
52033;SDS011;38045;52.988;6.536;2024-03-02T14:55:25;4.95;;;2.10;;
52033;SDS011;38045;52.988;6.536;2024-03-02T14:57:51;1.48;;;1.27;;
52033;SDS011;38045;52.988;6.536;2024-03-02T15:00:16;1.88;;;1.55;;
52033;SDS011;38045;52.988;6.536;2024-03-02T15:02:42;2.47;;;1.50;;
52033;SDS011;38045;52.988;6.536;2024-03-02T15:05:08;1.63;;;1.52;;
52033;SDS011;38045;52.988;6.536;2024-03-02T15:07:34;2.35;;;1.42;;
52033;SDS011;38045;52.988;6.536;2024-03-02T15:10:00;1.58;;;1.48;;